< < Back
Terminal Aerodrome Forecast


Current Version              Previous Versions:   1  2  3  4  5  6  7  8  9  

Terminal Aerodrome Forecast

172
FTUS42 KFFC 032325
TAFFTY
TAF
KFTY 032325Z 0400/0424 10004KT 5SM BR OVC004
     FM040800 20005KT 2SM BR BKN003 OVC007
     FM041400 22006KT 4SM BR BKN007
     FM041700 22008G15KT P6SM BKN020
     FM042200 20006KT P6SM SCT040 BKN100=



Latest METAR

373
SAUS70 KWBC 040000 RRA
MTRFTY
METAR KFTY 032353Z 07005KT 5SM BR OVC003 11/10 A3010 RMK AO2 SLP194
60003 T01110100 10117 20106 58005


USA.gov is the U.S. government's official web portal to all federal, state and local government web resources and services.